Time;durP1;ratioP1;P1;durP2;ratioP2;P2;SDS_P1;SDS_P2;PMS_P1;PMS_P2;Temp;Humidity;BMP_temperature;BMP_pressure;BME280_temperature;BME280_humidity;BME280_pressure;Samples;Min_cycle;Max_cycle;Signal;HPM_P1;HPM_P2
2021/05/07 00:01:28;;;;;;;17.17;11.50;;;4.90;90.20;;;;;;5094516;28;20020;-37
2021/05/07 00:03:54;;;;;;;18.65;11.82;;;4.90;89.70;;;;;;5092945;28;20392;-37
2021/05/07 00:06:19;;;;;;;20.90;11.98;;;4.80;89.70;;;;;;5092929;28;20024;-36
2021/05/07 00:08:45;;;;;;;16.75;12.68;;;5.00;90.00;;;;;;5094173;28;20435;-37
2021/05/07 00:11:17;;;;;;;20.23;13.20;;;5.10;89.80;;;;;;5094003;28;20016;-35
2021/05/07 00:13:44;;;;;;;24.05;14.93;;;5.10;88.80;;;;;;5094080;28;20495;-36
2021/05/07 00:16:10;;;;;;;20.95;13.48;;;5.10;88.80;;;;;;5093876;28;20040;-36
2021/05/07 00:18:38;;;;;;;20.55;13.63;;;4.90;89.20;;;;;;5094185;28;20035;-36
2021/05/07 00:21:04;;;;;;;19.35;13.13;;;4.80;90.30;;;;;;5092280;28;20028;-36
2021/05/07 00:23:29;;;;;;;16.33;11.77;;;5.00;90.70;;;;;;5093938;28;20031;-36
2021/05/07 00:25:56;;;;;;;27.38;16.92;;;5.10;88.90;;;;;;5093362;28;20035;-37
2021/05/07 00:28:21;;;;;;;19.70;13.30;;;5.10;88.70;;;;;;5093372;28;20103;-37
2021/05/07 00:30:48;;;;;;;20.58;13.23;;;5.10;88.50;;;;;;5093251;28;20107;-35
2021/05/07 00:33:14;;;;;;;20.73;14.65;;;5.00;88.90;;;;;;5093850;28;20123;-35
2021/05/07 00:35:40;;;;;;;21.52;15.63;;;4.90;89.40;;;;;;5092557;28;20111;-36
2021/05/07 00:38:06;;;;;;;24.60;14.68;;;4.90;89.50;;;;;;5093278;28;20024;-36
2021/05/07 00:40:32;;;;;;;21.40;15.70;;;4.80;89.80;;;;;;5093712;28;20099;-36
2021/05/07 00:42:58;;;;;;;25.02;16.05;;;4.80;89.90;;;;;;5093190;28;20028;-36
2021/05/07 00:45:26;;;;;;;24.83;15.63;;;4.80;89.80;;;;;;5093081;28;20128;-36
2021/05/07 00:47:55;;;;;;;20.58;14.57;;;4.70;90.40;;;;;;5093163;28;20024;-36
2021/05/07 00:50:23;;;;;;;22.33;14.68;;;4.70;90.50;;;;;;5092879;28;20031;-35
2021/05/07 00:52:49;;;;;;;18.63;14.65;;;4.80;90.70;;;;;;5092854;28;20078;-36
2021/05/07 00:55:14;;;;;;;24.85;16.25;;;4.80;90.80;;;;;;5093225;28;20071;-36
2021/05/07 00:57:40;;;;;;;26.17;17.42;;;4.90;90.20;;;;;;5092579;28;20057;-36
2021/05/07 01:00:08;;;;;;;26.10;17.52;;;5.00;89.30;;;;;;5093399;28;20031;-36
2021/05/07 01:02:34;;;;;;;26.48;16.85;;;5.10;89.20;;;;;;5093769;28;20516;-36
2021/05/07 01:05:01;;;;;;;28.40;18.45;;;5.30;88.30;;;;;;5092948;28;20052;-38
2021/05/07 01:07:28;;;;;;;23.25;15.90;;;5.20;88.70;;;;;;5093156;28;20428;-37
2021/05/07 01:09:53;;;;;;;27.00;17.40;;;5.20;89.00;;;;;;5092846;28;20056;-35
2021/05/07 01:12:19;;;;;;;25.85;17.90;;;5.20;88.90;;;;;;5092941;28;20058;-36
2021/05/07 01:15:04;;;;;;;28.52;17.40;;;5.30;88.70;;;;;;5092986;28;20020;-37
2021/05/07 01:17:31;;;;;;;26.63;17.55;;;5.30;89.00;;;;;;5091709;28;20380;-36
2021/05/07 01:20:05;;;;;;;26.00;18.27;;;5.30;88.70;;;;;;5092813;28;20039;-35
2021/05/07 01:22:30;;;;;;;28.05;19.00;;;5.30;89.10;;;;;;5093223;28;20043;-36
2021/05/07 01:24:56;;;;;;;32.22;21.38;;;5.30;88.70;;;;;;5093073;28;20020;-36
2021/05/07 01:27:21;;;;;;;27.27;18.67;;;5.20;89.00;;;;;;5093303;28;20123;-36
2021/05/07 01:29:47;;;;;;;32.92;20.25;;;5.20;89.40;;;;;;5093675;28;20078;-37
2021/05/07 01:32:13;;;;;;;36.83;21.13;;;5.20;89.30;;;;;;5092858;28;20153;-36
2021/05/07 01:34:38;;;;;;;32.65;20.92;;;5.30;89.00;;;;;;5094011;28;20145;-36
2021/05/07 01:37:04;;;;;;;28.63;19.65;;;5.30;89.20;;;;;;5093158;28;20031;-36
2021/05/07 01:39:29;;;;;;;30.83;21.02;;;5.30;89.40;;;;;;5093035;28;20028;-36
2021/05/07 01:41:55;;;;;;;31.00;21.25;;;5.20;90.00;;;;;;5092657;28;20059;-36
2021/05/07 01:44:21;;;;;;;31.77;21.42;;;5.10;90.40;;;;;;5092593;28;20030;-36
2021/05/07 01:46:46;;;;;;;36.15;22.65;;;5.20;90.00;;;;;;5092658;28;20128;-36
2021/05/07 01:49:12;;;;;;;38.70;22.02;;;5.30;89.90;;;;;;5092395;28;20456;-36
2021/05/07 01:51:37;;;;;;;34.88;22.70;;;5.20;90.10;;;;;;5092564;28;20071;-36
2021/05/07 01:54:04;;;;;;;36.35;23.80;;;5.30;90.40;;;;;;5092635;28;20028;-36
2021/05/07 01:56:29;;;;;;;38.85;25.23;;;5.30;89.70;;;;;;5092610;28;20056;-35
2021/05/07 01:58:58;;;;;;;35.72;23.60;;;5.50;89.30;;;;;;5092625;28;20035;-36
2021/05/07 02:01:24;;;;;;;41.53;24.73;;;5.30;89.80;;;;;;5092680;28;20020;-36
2021/05/07 02:03:49;;;;;;;39.08;24.88;;;5.30;90.20;;;;;;5093034;28;20017;-36
2021/05/07 02:06:15;;;;;;;36.88;23.13;;;5.40;89.50;;;;;;5092803;28;20469;-36
2021/05/07 02:08:41;;;;;;;39.13;24.08;;;5.30;89.60;;;;;;5093778;28;20422;-36
2021/05/07 02:11:06;;;;;;;37.83;22.52;;;5.40;89.00;;;;;;5095077;28;20028;-35
2021/05/07 02:13:32;;;;;;;32.75;22.33;;;5.40;89.20;;;;;;5096765;28;20073;-35
2021/05/07 02:15:58;;;;;;;38.10;23.27;;;5.60;88.90;;;;;;5096679;28;20029;-36
2021/05/07 02:18:25;;;;;;;35.05;21.73;;;5.50;89.10;;;;;;5095050;28;20020;-36
2021/05/07 02:20:53;;;;;;;34.95;22.33;;;5.50;88.60;;;;;;5096207;28;20040;-36
2021/05/07 02:23:20;;;;;;;32.10;20.83;;;5.30;89.40;;;;;;5096207;28;20024;-36
2021/05/07 02:25:46;;;;;;;34.85;22.45;;;5.30;89.70;;;;;;5096325;28;20097;-36
2021/05/07 02:28:11;;;;;;;35.97;22.27;;;5.30;89.50;;;;;;5097072;28;20020;-36
2021/05/07 02:30:37;;;;;;;41.42;26.08;;;5.40;89.40;;;;;;5096590;28;20020;-36
2021/05/07 02:33:04;;;;;;;33.33;22.88;;;5.40;89.00;;;;;;5096606;28;20076;-35
2021/05/07 02:35:30;;;;;;;35.10;23.20;;;5.40;89.10;;;;;;5095979;28;20028;-36
2021/05/07 02:37:56;;;;;;;39.85;24.83;;;5.30;89.00;;;;;;5096116;28;20024;-36
2021/05/07 02:40:22;;;;;;;39.40;23.17;;;5.30;89.30;;;;;;5094642;28;20034;-35
2021/05/07 02:42:47;;;;;;;34.97;23.02;;;5.20;89.60;;;;;;5096143;28;20105;-36
2021/05/07 02:45:13;;;;;;;38.78;24.70;;;5.10;90.10;;;;;;5095835;28;20039;-35
2021/05/07 02:47:41;;;;;;;37.13;23.80;;;5.10;90.50;;;;;;5094608;28;20024;-36
2021/05/07 02:50:08;;;;;;;40.17;24.40;;;5.00;90.70;;;;;;5094312;28;20028;-35
2021/05/07 02:52:34;;;;;;;46.90;26.25;;;5.10;90.20;;;;;;5094326;28;20504;-37
2021/05/07 02:55:01;;;;;;;40.00;25.02;;;5.20;90.00;;;;;;5095600;28;20027;-36
2021/05/07 02:57:27;;;;;;;35.10;24.15;;;5.10;90.00;;;;;;5095759;28;20387;-37
2021/05/07 02:59:53;;;;;;;39.28;25.75;;;5.20;89.90;;;;;;5096090;28;20095;-36
2021/05/07 03:02:18;;;;;;;42.15;26.52;;;5.00;89.90;;;;;;5095624;28;20471;-36
2021/05/07 03:04:44;;;;;;;44.75;26.10;;;5.00;90.10;;;;;;5095613;28;20028;-36
2021/05/07 03:07:09;;;;;;;44.35;24.30;;;5.00;90.50;;;;;;5094063;28;20057;-36
2021/05/07 03:09:35;;;;;;;43.88;25.17;;;4.80;90.40;;;;;;5095560;28;20080;-36
2021/05/07 03:12:01;;;;;;;45.47;25.65;;;4.80;90.40;;;;;;5095342;28;20464;-36
2021/05/07 03:14:26;;;;;;;45.03;24.55;;;4.80;90.70;;;;;;5095470;28;20028;-40
2021/05/07 03:16:52;;;;;;;44.10;24.52;;;4.80;90.70;;;;;;5095500;28;20028;-35
2021/05/07 03:19:18;;;;;;;39.70;25.35;;;4.80;90.90;;;;;;5095170;28;20077;-35
2021/05/07 03:21:44;;;;;;;46.00;25.50;;;4.70;91.10;;;;;;5095031;28;20031;-35
2021/05/07 03:24:12;;;;;;;45.90;27.52;;;4.80;90.80;;;;;;5095271;28;20032;-35
2021/05/07 03:26:38;;;;;;;44.63;25.75;;;4.80;90.70;;;;;;5095145;28;20028;-35
2021/05/07 03:29:04;;;;;;;42.13;24.48;;;4.80;90.80;;;;;;5094855;28;20043;-36
2021/05/07 03:31:30;;;;;;;48.03;27.38;;;4.80;90.60;;;;;;5094963;28;20024;-37
2021/05/07 03:33:56;;;;;;;41.38;24.55;;;4.70;90.70;;;;;;5094915;28;20357;-35
2021/05/07 03:36:22;;;;;;;42.08;25.38;;;4.60;91.00;;;;;;5094810;28;20031;-35
2021/05/07 03:38:47;;;;;;;48.38;28.20;;;4.70;90.90;;;;;;5094760;28;20028;-36
2021/05/07 03:41:13;;;;;;;53.13;27.73;;;4.70;90.70;;;;;;5094726;28;20032;-35
2021/05/07 03:43:39;;;;;;;43.70;25.08;;;4.60;91.10;;;;;;5094641;28;20476;-36
2021/05/07 03:46:04;;;;;;;39.80;24.90;;;4.60;91.30;;;;;;5094586;28;20016;-35
2021/05/07 03:48:30;;;;;;;49.58;28.30;;;4.50;91.10;;;;;;5093356;28;20028;-35
2021/05/07 03:50:56;;;;;;;45.95;25.35;;;4.60;91.30;;;;;;5094281;28;20072;-35
2021/05/07 03:53:22;;;;;;;44.92;27.15;;;4.50;91.30;;;;;;5093402;28;20046;-40
2021/05/07 03:55:49;;;;;;;39.45;24.45;;;4.40;91.70;;;;;;5094771;28;20099;-35
2021/05/07 03:58:15;;;;;;;38.20;23.00;;;4.40;91.80;;;;;;5094658;28;20030;-35
2021/05/07 04:00:41;;;;;;;42.28;23.73;;;4.40;91.70;;;;;;5094640;28;20536;-35
2021/05/07 04:03:07;;;;;;;48.83;24.45;;;4.30;91.40;;;;;;5094424;28;20103;-35
2021/05/07 04:05:33;;;;;;;34.80;22.70;;;4.30;91.20;;;;;;5094289;28;20498;-35
2021/05/07 04:08:17;;;;;;;40.42;23.70;;;4.20;91.40;;;;;;5094584;28;20024;-35
2021/05/07 04:10:45;;;;;;;41.65;24.33;;;4.20;91.50;;;;;;5094596;28;20020;-35
2021/05/07 04:15:38;;;;;;;39.58;23.70;;;4.20;91.10;;;;;;5094753;28;20047;-35
2021/05/07 04:18:04;;;;;;;41.83;25.30;;;4.20;91.40;;;;;;5095162;28;20024;-37
2021/05/07 04:20:30;;;;;;;36.10;22.33;;;4.20;91.60;;;;;;5094021;28;20031;-35
2021/05/07 04:22:55;;;;;;;38.47;22.67;;;4.20;91.60;;;;;;5093985;28;20032;-35
2021/05/07 04:25:21;;;;;;;39.00;23.33;;;4.10;91.70;;;;;;5094053;28;20020;-35
2021/05/07 04:27:47;;;;;;;45.88;25.35;;;4.10;91.90;;;;;;5093788;28;20051;-35
2021/05/07 04:30:13;;;;;;;46.00;26.88;;;4.10;91.60;;;;;;5092520;28;20166;-35
2021/05/07 04:32:38;;;;;;;48.00;27.05;;;4.30;91.60;;;;;;5093251;28;20024;-36
2021/05/07 04:35:04;;;;;;;51.65;29.02;;;4.30;91.40;;;;;;5093795;28;20031;-35
2021/05/07 04:37:30;;;;;;;47.08;26.40;;;4.30;91.50;;;;;;5093794;28;20028;-35
2021/05/07 04:39:56;;;;;;;49.95;27.75;;;4.30;91.40;;;;;;5093640;28;20043;-36
2021/05/07 04:42:21;;;;;;;57.60;28.80;;;4.30;91.30;;;;;;5093661;28;20024;-36
2021/05/07 04:44:47;;;;;;;42.80;25.85;;;4.30;91.30;;;;;;5092443;28;20388;-36
2021/05/07 04:47:13;;;;;;;52.90;26.35;;;4.20;91.80;;;;;;5093967;28;20024;-36
2021/05/07 04:49:38;;;;;;;38.60;23.65;;;4.30;91.60;;;;;;5092266;28;20027;-36
2021/05/07 04:52:05;;;;;;;40.72;24.33;;;4.50;91.10;;;;;;5093440;28;20062;-36
2021/05/07 04:54:33;;;;;;;36.38;23.20;;;4.60;90.40;;;;;;5093530;28;20047;-36
2021/05/07 04:56:59;;;;;;;37.15;21.67;;;4.80;89.90;;;;;;5093568;28;20099;-36
2021/05/07 04:59:25;;;;;;;44.33;23.45;;;4.80;89.40;;;;;;5093596;28;20043;-36
2021/05/07 05:01:50;;;;;;;37.70;22.73;;;5.00;89.00;;;;;;5093508;28;20042;-36
2021/05/07 05:04:16;;;;;;;38.92;21.63;;;4.90;89.40;;;;;;5093324;28;20042;-36
2021/05/07 05:06:42;;;;;;;36.75;19.90;;;5.00;89.30;;;;;;5093585;28;20035;-36
2021/05/07 05:09:07;;;;;;;39.20;22.75;;;5.10;89.10;;;;;;5093436;28;20020;-36
2021/05/07 05:11:33;;;;;;;36.50;21.00;;;5.10;88.40;;;;;;5094028;28;20016;-36
2021/05/07 05:13:58;;;;;;;40.40;22.52;;;5.10;88.20;;;;;;5093841;28;20491;-36
2021/05/07 05:16:24;;;;;;;32.45;20.85;;;5.20;88.70;;;;;;5093130;28;20085;-36
2021/05/07 05:18:52;;;;;;;35.67;20.30;;;5.10;88.50;;;;;;5093117;28;20024;-35
2021/05/07 05:21:17;;;;;;;34.70;19.92;;;5.30;88.50;;;;;;5093202;28;20032;-36
2021/05/07 05:23:43;;;;;;;31.50;19.73;;;5.40;88.10;;;;;;5093096;28;20020;-35
2021/05/07 05:26:09;;;;;;;25.20;16.27;;;5.40;87.80;;;;;;5093320;28;20098;-37
2021/05/07 05:28:36;;;;;;;29.83;19.58;;;5.30;87.80;;;;;;5093254;28;20387;-37
2021/05/07 05:31:02;;;;;;;32.42;19.35;;;5.30;87.80;;;;;;5092897;28;20028;-37
2021/05/07 05:33:28;;;;;;;31.02;19.58;;;5.50;87.40;;;;;;5092960;28;20023;-36
2021/05/07 05:35:54;;;;;;;28.58;19.15;;;5.50;87.50;;;;;;5092988;28;20455;-36
2021/05/07 05:38:20;;;;;;;28.20;17.73;;;5.60;87.50;;;;;;5092843;28;20038;-37
2021/05/07 05:40:46;;;;;;;27.33;19.75;;;5.50;87.90;;;;;;5092861;28;20024;-35
2021/05/07 05:43:11;;;;;;;26.25;18.52;;;5.40;88.00;;;;;;5092383;28;20028;-35
2021/05/07 05:45:37;;;;;;;33.92;18.50;;;5.60;87.80;;;;;;5096780;28;20111;-36
2021/05/07 05:48:04;;;;;;;26.25;17.52;;;5.80;86.80;;;;;;5096763;28;20028;-37
2021/05/07 05:50:41;;;;;;;24.75;15.15;;;5.70;86.30;;;;;;5095443;28;20395;-35
2021/05/07 05:53:06;;;;;;;23.67;14.30;;;5.70;85.60;;;;;;5095483;28;20044;-36
2021/05/07 05:55:33;;;;;;;20.60;12.40;;;5.80;84.60;;;;;;5096645;28;20028;-36
2021/05/07 05:57:59;;;;;;;16.95;10.10;;;5.70;82.20;;;;;;5096649;28;20099;-36
2021/05/07 06:00:25;;;;;;;19.33;10.07;;;5.60;81.20;;;;;;5095148;28;20123;-36
2021/05/07 06:02:50;;;;;;;16.48;8.07;;;5.70;81.30;;;;;;5096754;28;20024;-36
2021/05/07 06:05:17;;;;;;;13.27;8.63;;;5.80;78.90;;;;;;5096549;28;20097;-36
2021/05/07 06:07:43;;;;;;;15.80;8.35;;;5.80;79.10;;;;;;5096231;28;20031;-36
2021/05/07 06:10:11;;;;;;;14.73;9.43;;;5.80;79.50;;;;;;5096402;28;20073;-36
2021/05/07 06:12:37;;;;;;;16.00;9.60;;;5.80;80.30;;;;;;5096548;28;20414;-36
2021/05/07 06:15:05;;;;;;;15.48;9.60;;;5.90;80.30;;;;;;5096314;28;20020;-40
2021/05/07 06:17:31;;;;;;;18.63;12.68;;;6.10;80.30;;;;;;5096343;28;20066;-36
2021/05/07 06:19:57;;;;;;;15.30;10.82;;;6.00;80.50;;;;;;5096327;28;20028;-36
2021/05/07 06:22:23;;;;;;;14.98;8.52;;;6.00;80.80;;;;;;5096122;28;20038;-37
2021/05/07 06:24:49;;;;;;;18.88;10.77;;;6.00;80.00;;;;;;5096161;28;20024;-36
2021/05/07 06:27:15;;;;;;;16.02;10.35;;;6.10;80.50;;;;;;5095147;28;20035;-36
2021/05/07 06:29:41;;;;;;;15.10;10.13;;;5.90;80.90;;;;;;5095300;28;20020;-36
2021/05/07 06:32:07;;;;;;;11.27;6.93;;;5.90;81.60;;;;;;5096260;28;20027;-36
2021/05/07 06:34:33;;;;;;;10.27;6.65;;;6.00;80.60;;;;;;5095970;28;20036;-36
2021/05/07 06:36:59;;;;;;;10.38;5.45;;;6.10;79.10;;;;;;5096213;28;20020;-37
2021/05/07 06:39:29;;;;;;;9.38;6.38;;;5.90;79.40;;;;;;5095916;28;20062;-38
2021/05/07 06:41:55;;;;;;;7.13;5.13;;;5.90;80.20;;;;;;5095552;28;20039;-36
2021/05/07 06:44:21;;;;;;;8.38;5.45;;;5.50;80.90;;;;;;5093944;28;20466;-36
2021/05/07 06:46:46;;;;;;;7.22;4.93;;;4.90;82.40;;;;;;5095692;28;20098;-36
2021/05/07 06:49:12;;;;;;;6.93;5.45;;;4.80;82.40;;;;;;5095353;28;20364;-36
2021/05/07 06:51:38;;;;;;;8.55;4.82;;;4.90;82.30;;;;;;5095114;28;20048;-36
2021/05/07 06:54:06;;;;;;;5.95;3.97;;;4.80;83.10;;;;;;5095402;28;20044;-37
2021/05/07 06:56:32;;;;;;;7.30;4.78;;;4.80;82.80;;;;;;5094266;28;20412;-37
2021/05/07 06:58:57;;;;;;;6.55;3.65;;;4.40;83.50;;;;;;5095343;28;20089;-36
2021/05/07 07:01:23;;;;;;;3.38;2.72;;;4.40;83.30;;;;;;5093731;28;20070;-36
2021/05/07 07:03:49;;;;;;;3.22;2.85;;;4.30;83.80;;;;;;5093633;28;20016;-37
2021/05/07 07:06:14;;;;;;;6.15;3.05;;;4.20;84.20;;;;;;5093560;28;20553;-36
2021/05/07 07:08:40;;;;;;;3.65;2.13;;;4.20;84.50;;;;;;5093667;28;20100;-36
2021/05/07 07:11:05;;;;;;;4.47;3.10;;;4.30;84.30;;;;;;5094510;28;20084;-36
2021/05/07 07:13:31;;;;;;;4.93;2.38;;;4.20;85.10;;;;;;5094609;28;20169;-35
2021/05/07 07:15:57;;;;;;;2.92;2.42;;;4.00;84.90;;;;;;5094618;28;20028;-35
2021/05/07 07:18:23;;;;;;;4.45;1.63;;;3.80;85.50;;;;;;5095028;28;20035;-35
2021/05/07 07:20:49;;;;;;;3.40;2.10;;;3.80;86.20;;;;;;5095097;28;20497;-35
2021/05/07 07:23:16;;;;;;;5.35;2.97;;;3.70;86.10;;;;;;5095236;28;20024;-36
2021/05/07 07:25:42;;;;;;;4.85;3.40;;;3.90;86.80;;;;;;5095233;28;20032;-37
2021/05/07 07:28:08;;;;;;;3.88;2.70;;;4.00;86.50;;;;;;5095344;28;20321;-37
2021/05/07 07:30:35;;;;;;;5.13;3.05;;;4.20;86.40;;;;;;5094310;28;20030;-36
2021/05/07 07:33:01;;;;;;;4.70;2.72;;;4.40;85.20;;;;;;5093688;28;20031;-36
2021/05/07 07:35:26;;;;;;;4.18;3.30;;;4.30;84.40;;;;;;5094406;28;20099;-36
2021/05/07 07:37:52;;;;;;;3.42;2.50;;;4.50;84.70;;;;;;5094019;28;20093;-36
2021/05/07 07:40:18;;;;;;;4.10;2.63;;;4.70;83.80;;;;;;5093940;28;20107;-36
2021/05/07 07:42:44;;;;;;;4.22;2.45;;;5.00;82.20;;;;;;5094371;28;20028;-35
2021/05/07 07:45:11;;;;;;;3.38;1.92;;;4.80;82.50;;;;;;5092906;28;20024;-36
2021/05/07 07:47:37;;;;;;;3.75;2.20;;;4.80;84.00;;;;;;5093931;28;20032;-36
2021/05/07 07:50:07;;;;;;;4.32;2.35;;;4.80;84.50;;;;;;5093978;28;20178;-37
2021/05/07 07:52:34;;;;;;;3.25;2.10;;;5.00;83.50;;;;;;5093880;28;20044;-36
2021/05/07 07:55:00;;;;;;;2.45;2.17;;;5.20;84.60;;;;;;5094235;28;20437;-36
2021/05/07 07:57:26;;;;;;;2.35;2.15;;;5.50;82.20;;;;;;5095600;28;20024;-36
2021/05/07 07:59:52;;;;;;;6.38;2.67;;;5.60;80.70;;;;;;5095401;28;20035;-36
2021/05/07 08:02:18;;;;;;;5.78;2.70;;;5.80;81.00;;;;;;5093675;28;20552;-36
2021/05/07 08:04:44;;;;;;;3.90;2.55;;;6.00;81.50;;;;;;5093399;28;20032;-36
2021/05/07 08:07:12;;;;;;;7.55;2.28;;;5.30;82.30;;;;;;5093537;28;20359;-38
2021/05/07 08:09:38;;;;;;;2.92;1.88;;;5.50;82.10;;;;;;5093647;28;20027;-36
2021/05/07 08:12:04;;;;;;;5.28;2.28;;;5.90;81.40;;;;;;5093815;28;20381;-36
2021/05/07 08:14:29;;;;;;;6.65;4.50;;;6.30;80.90;;;;;;5092555;28;20031;-36
2021/05/07 08:16:55;;;;;;;8.55;4.25;;;6.60;79.10;;;;;;5093347;28;20357;-36
2021/05/07 08:19:21;;;;;;;7.00;4.53;;;6.80;78.90;;;;;;5093297;28;20024;-36
2021/05/07 08:21:46;;;;;;;8.73;4.57;;;7.30;78.10;;;;;;5093748;28;20441;-36
2021/05/07 08:24:12;;;;;;;7.18;5.15;;;7.40;75.90;;;;;;5093564;28;20431;-36
2021/05/07 08:26:38;;;;;;;8.15;4.85;;;7.50;75.60;;;;;;5093277;28;20111;-37
2021/05/07 08:29:04;;;;;;;9.98;5.82;;;8.20;74.30;;;;;;5093195;28;20073;-36
2021/05/07 08:31:30;;;;;;;9.02;5.63;;;7.70;76.50;;;;;;5093651;28;20427;-36
2021/05/07 08:33:55;;;;;;;5.80;4.38;;;8.40;74.90;;;;;;5094205;28;20028;-36
2021/05/07 08:36:21;;;;;;;6.90;4.68;;;9.40;70.50;;;;;;5093268;28;20028;-37
2021/05/07 08:38:47;;;;;;;6.15;3.47;;;9.30;69.60;;;;;;5093314;28;20035;-36
2021/05/07 08:41:13;;;;;;;3.47;3.00;;;8.80;70.60;;;;;;5093411;28;20077;-38
2021/05/07 08:43:38;;;;;;;5.38;3.78;;;9.00;67.90;;;;;;5093585;28;20476;-36
2021/05/07 08:46:07;;;;;;;7.15;3.30;;;9.90;66.60;;;;;;5093312;28;20030;-36
2021/05/07 08:48:34;;;;;;;4.85;3.00;;;10.50;62.50;;;;;;5092842;28;20031;-36
2021/05/07 08:51:01;;;;;;;3.72;2.65;;;10.80;60.80;;;;;;5092546;28;20048;-38
2021/05/07 08:53:28;;;;;;;3.55;2.35;;;10.20;61.90;;;;;;5091624;28;20422;-37
2021/05/07 08:55:54;;;;;;;3.00;1.90;;;9.80;65.10;;;;;;5093174;28;20344;-38
2021/05/07 08:58:20;;;;;;;2.25;1.90;;;10.10;61.70;;;;;;5093704;28;20123;-37
2021/05/07 09:00:46;;;;;;;2.90;1.90;;;9.30;62.90;;;;;;5092682;28;20107;-37
2021/05/07 09:03:16;;;;;;;2.42;2.05;;;9.70;63.00;;;;;;5092268;28;20044;-37
2021/05/07 09:05:42;;;;;;;3.78;2.15;;;9.30;63.90;;;;;;5092895;28;20191;-37
2021/05/07 09:08:09;;;;;;;4.20;2.10;;;9.30;62.80;;;;;;5091253;28;20059;-36
2021/05/07 09:10:38;;;;;;;2.30;1.90;;;9.40;64.00;;;;;;5093335;28;20466;-36
2021/05/07 09:13:05;;;;;;;2.60;1.85;;;9.30;64.80;;;;;;5075316;28;20020;-37
2021/05/07 09:15:41;;;;;;;2.85;1.75;;;9.60;61.90;;;;;;5092979;28;20024;-36
2021/05/07 09:18:08;;;;;;;3.53;1.70;;;10.50;60.20;;;;;;5093039;28;20024;-36
2021/05/07 09:20:39;;;;;;;4.90;3.35;;;11.50;56.20;;;;;;5099227;28;20032;-38
2021/05/07 09:23:11;;;;;;;2.15;1.73;;;11.30;55.70;;;;;;5099695;28;20028;-37
2021/05/07 09:25:37;;;;;;;2.10;1.90;;;9.80;57.70;;;;;;5099134;28;20024;-41
2021/05/07 09:28:12;;;;;;;4.95;1.52;;;9.40;59.90;;;;;;5097691;28;20028;-37
2021/05/07 09:30:38;;;;;;;3.97;1.80;;;10.70;57.70;;;;;;5098141;28;20396;-36
2021/05/07 09:33:06;;;;;;;1.45;1.35;;;10.40;57.00;;;;;;5099164;28;20020;-37
2021/05/07 09:35:32;;;;;;;3.72;1.80;;;10.40;57.60;;;;;;5099436;28;20069;-37
2021/05/07 09:38:10;;;;;;;1.75;1.65;;;11.10;56.60;;;;;;5098822;28;20024;-37
2021/05/07 09:40:37;;;;;;;3.10;1.75;;;11.90;53.80;;;;;;5100432;28;20104;-36
2021/05/07 09:43:15;;;;;;;8.00;4.95;;;10.70;54.00;;;;;;5099779;28;20082;-36
2021/05/07 09:45:42;;;;;;;1.98;1.65;;;10.70;55.80;;;;;;5099315;28;20032;-36
2021/05/07 09:48:24;;;;;;;4.03;1.63;;;10.50;56.30;;;;;;5098768;28;20085;-36
2021/05/07 09:51:05;;;;;;;3.45;1.92;;;9.90;56.40;;;;;;5099157;28;20027;-35
2021/05/07 09:53:35;;;;;;;19.73;9.52;;;9.20;61.20;;;;;;5100197;28;20048;-37
2021/05/07 09:56:12;;;;;;;5.35;1.90;;;9.20;59.70;;;;;;5099372;28;20465;-36
2021/05/07 09:58:39;;;;;;;1.95;1.58;;;9.50;57.70;;;;;;5099480;28;20039;-36
2021/05/07 10:01:05;;;;;;;2.10;1.90;;;11.20;52.30;;;;;;5098207;28;20111;-37
2021/05/07 10:03:31;;;;;;;5.90;1.73;;;12.70;48.80;;;;;;5098207;28;20478;-36
2021/05/07 10:05:56;;;;;;;3.58;2.15;;;11.20;52.90;;;;;;5099211;28;20032;-37
2021/05/07 10:08:23;;;;;;;2.65;1.70;;;10.80;53.60;;;;;;5099648;28;20483;-36
2021/05/07 10:10:49;;;;;;;2.05;1.77;;;10.20;54.90;;;;;;5099123;28;20027;-36
2021/05/07 10:13:24;;;;;;;3.80;1.55;;;10.50;55.10;;;;;;5098780;28;20024;-36
2021/05/07 10:16:03;;;;;;;3.25;2.35;;;11.00;52.80;;;;;;5099369;28;20027;-36
2021/05/07 10:18:31;;;;;;;1.48;1.38;;;11.20;53.00;;;;;;5099655;28;20019;-36
2021/05/07 10:21:09;;;;;;;4.53;1.75;;;10.20;55.40;;;;;;5099337;28;20024;-36
2021/05/07 10:23:36;;;;;;;3.05;1.73;;;10.30;54.80;;;;;;5099340;28;20027;-36
2021/05/07 10:26:11;;;;;;;2.38;2.13;;;10.70;54.00;;;;;;5099344;28;20024;-36
2021/05/07 10:28:45;;;;;;;3.47;2.65;;;10.20;54.70;;;;;;5099428;28;20028;-37
2021/05/07 10:31:13;;;;;;;3.78;2.10;;;10.30;54.60;;;;;;5096252;28;20028;-36
2021/05/07 10:33:42;;;;;;;3.25;2.95;;;10.80;54.70;;;;;;5095901;28;20472;-36
2021/05/07 10:36:08;;;;;;;4.22;2.60;;;10.50;54.90;;;;;;5095608;28;20016;-38
2021/05/07 10:38:33;;;;;;;3.33;2.40;;;10.40;55.30;;;;;;5095843;28;20055;-37
2021/05/07 10:41:05;;;;;;;3.88;2.20;;;10.30;54.50;;;;;;5095916;28;20028;-36
2021/05/07 10:43:40;;;;;;;4.63;3.17;;;10.50;54.70;;;;;;5095882;28;20024;-36
2021/05/07 10:46:07;;;;;;;3.15;2.17;;;11.30;52.10;;;;;;5095448;28;20067;-36
2021/05/07 10:48:34;;;;;;;2.45;2.13;;;10.80;53.30;;;;;;5095350;28;20024;-36
2021/05/07 10:51:14;;;;;;;5.68;3.55;;;10.40;53.50;;;;;;5095051;28;20044;-36
2021/05/07 10:53:39;;;;;;;3.75;2.50;;;10.90;53.10;;;;;;5095291;28;20016;-37
2021/05/07 10:56:19;;;;;;;4.55;1.75;;;10.80;50.40;;;;;;5095447;28;20047;-36
2021/05/07 10:58:45;;;;;;;3.75;1.77;;;11.50;50.30;;;;;;5096031;28;20463;-36
2021/05/07 11:01:21;;;;;;;2.15;1.90;;;11.70;50.10;;;;;;5095597;28;20024;-37
2021/05/07 11:04:00;;;;;;;5.78;2.05;;;11.40;50.30;;;;;;5096019;28;20107;-36
2021/05/07 11:06:41;;;;;;;3.53;2.80;;;10.90;51.70;;;;;;5094810;28;20031;-37
2021/05/07 11:09:22;;;;;;;2.83;2.10;;;9.90;54.70;;;;;;5094885;28;20032;-37
2021/05/07 11:11:53;;;;;;;4.20;1.90;;;10.80;53.50;;;;;;5095037;28;20029;-37
2021/05/07 11:14:20;;;;;;;;;;;11.10;51.10;;;;;;5095639;28;20054;-37
2021/05/07 11:16:47;;;;;;;3.15;2.28;;;11.40;51.70;;;;;;5095084;28;19911;-38
2021/05/07 11:19:23;;;;;;;4.07;2.35;;;13.20;45.90;;;;;;5095989;28;20495;-37
2021/05/07 11:21:52;;;;;;;3.08;1.98;;;12.50;46.10;;;;;;5096543;28;20149;-36
2021/05/07 11:24:20;;;;;;;2.80;2.30;;;11.50;50.20;;;;;;5095262;28;20020;-36
2021/05/07 11:26:46;;;;;;;5.68;2.28;;;12.40;48.10;;;;;;5095673;28;20035;-37
2021/05/07 11:29:12;;;;;;;4.72;2.65;;;11.30;51.40;;;;;;5095060;28;20020;-37
2021/05/07 11:31:37;;;;;;;3.75;2.30;;;10.80;52.60;;;;;;5093879;28;20376;-36
2021/05/07 11:34:03;;;;;;;2.28;1.55;;;11.10;51.00;;;;;;5095384;28;20400;-36
2021/05/07 11:36:29;;;;;;;4.03;2.53;;;12.10;50.50;;;;;;5094895;28;20031;-37
2021/05/07 11:38:54;;;;;;;3.95;2.22;;;13.00;45.30;;;;;;5095444;28;20024;-37
2021/05/07 11:41:25;;;;;;;3.25;2.15;;;12.30;46.50;;;;;;5076302;28;20024;-37
2021/05/07 11:43:52;;;;;;;4.43;1.83;;;12.30;46.40;;;;;;5094411;28;20031;-37
2021/05/07 11:46:19;;;;;;;3.70;1.63;;;11.80;47.80;;;;;;5093146;28;20054;-37
2021/05/07 11:48:49;;;;;;;2.30;1.75;;;12.10;43.30;;;;;;5094649;28;20024;-37
2021/05/07 11:51:16;;;;;;;2.40;1.80;;;12.00;45.70;;;;;;5094423;28;20492;-37
2021/05/07 11:53:42;;;;;;;3.25;2.00;;;11.50;47.10;;;;;;5094843;28;20020;-37
2021/05/07 11:56:20;;;;;;;3.10;2.20;;;11.50;47.10;;;;;;5092653;28;20051;-36
2021/05/07 11:58:51;;;;;;;2.90;1.88;;;12.40;45.70;;;;;;5094715;28;20024;-36
2021/05/07 12:01:19;;;;;;;2.35;1.80;;;12.50;44.40;;;;;;5076946;28;20043;-36
2021/05/07 12:03:46;;;;;;;3.53;2.63;;;11.60;46.90;;;;;;5095357;28;20020;-37
2021/05/07 12:06:18;;;;;;;5.28;2.45;;;11.10;47.90;;;;;;5094065;28;20028;-36
2021/05/07 12:08:44;;;;;;;3.05;1.90;;;11.60;45.80;;;;;;5094141;28;20500;-37
2021/05/07 12:11:11;;;;;;;2.65;2.10;;;13.20;43.10;;;;;;5096905;28;20024;-37
2021/05/07 12:13:37;;;;;;;1.65;1.55;;;13.30;41.50;;;;;;5095115;28;20020;-37
2021/05/07 12:16:04;;;;;;;4.20;2.55;;;12.80;41.70;;;;;;5092695;28;20024;-37
2021/05/07 12:18:34;;;;;;;4.03;2.42;;;11.70;44.90;;;;;;5094424;28;20024;-38
2021/05/07 12:21:03;;;;;;;2.47;1.90;;;10.80;48.30;;;;;;5094156;28;20028;-37
2021/05/07 12:23:46;;;;;;;4.22;2.22;;;12.70;41.40;;;;;;5093762;28;20028;-36
2021/05/07 12:26:13;;;;;;;2.60;1.92;;;14.70;38.10;;;;;;5092623;28;20028;-37
2021/05/07 12:28:39;;;;;;;2.85;1.80;;;14.40;37.70;;;;;;5093965;28;20065;-37
2021/05/07 12:31:08;;;;;;;3.42;2.15;;;13.30;40.10;;;;;;5091905;28;20031;-37
2021/05/07 12:33:35;;;;;;;2.90;1.85;;;13.80;38.90;;;;;;5093734;28;20467;-37
2021/05/07 12:36:03;;;;;;;2.38;2.13;;;12.90;40.80;;;;;;5093878;28;20444;-38
2021/05/07 12:38:35;;;;;;;3.75;1.92;;;13.50;38.90;;;;;;5093144;28;20451;-37
2021/05/07 12:41:09;;;;;;;2.70;1.48;;;14.30;37.00;;;;;;5093351;28;20020;-37
2021/05/07 12:43:36;;;;;;;3.22;1.75;;;13.70;35.60;;;;;;5093864;28;20032;-37
2021/05/07 12:46:03;;;;;;;3.80;1.85;;;13.70;36.50;;;;;;5093729;28;20035;-37
2021/05/07 12:48:29;;;;;;;2.13;1.65;;;15.10;32.70;;;;;;5093728;28;20020;-37